Highland, New York
Current Conditions -  °F | °C
As of 10:53 AM on Saturday 20 Dec 2014 (Local Time) from KPOU Reporting Station
Overcast Overcast  
Wind Chill: 22°   Ceiling: 3100
Heat Index: 30°   Visibility: 10mi
Dew Point: 19°   Wind: 8mph
Humidity: 64%   Direction: 10°N
Pressure: 30.3"   Gusts: NA
Location:  41.72°N, 73.96°W
Report Text: KPOU 201553Z 01007KT 10SM OVC031 M01/M07 A3030 RMK AO2 SLP259 T10111072
Loading
Personal Weather Stations






























Interactive Weather Map New forecast layout! Learn more

10-Day Weather Forecast

Advertisements
Track Severe Weather on mobile